Time;durP1;ratioP1;P1;durP2;ratioP2;P2;SDS_P1;SDS_P2;PMS_P1;PMS_P2;Temp;Humidity;BMP_temperature;BMP_pressure;BME280_temperature;BME280_humidity;BME280_pressure;Samples;Min_cycle;Max_cycle;Signal;HPM_P1;HPM_P2
2022/05/26 00:00:39;;;;;;;;;;;21.50;45.40;;;;;;4946739;28;19931;-53
2022/05/26 00:03:06;;;;;;;;;;;21.50;45.40;;;;;;4932785;29;19950;-53
2022/05/26 00:05:32;;;;;;;;;;;21.50;45.40;;;;;;4930908;28;19927;-54
2022/05/26 00:08:01;;;;;;;;;;;21.50;45.40;;;;;;4930301;29;19937;-55
2022/05/26 00:10:27;;;;;;;;;;;21.50;45.40;;;;;;4928896;28;19927;-57
2022/05/26 00:12:54;;;;;;;;;;;21.40;45.40;;;;;;4934510;28;19966;-55
2022/05/26 00:15:21;;;;;;;;;;;21.40;45.40;;;;;;4941175;28;19985;-56
2022/05/26 00:17:47;;;;;;;;;;;21.40;45.40;;;;;;4944376;28;19927;-57
2022/05/26 00:20:14;;;;;;;;;;;21.40;45.40;;;;;;4939084;28;19933;-52
2022/05/26 00:22:41;;;;;;;;;;;21.40;45.40;;;;;;4920439;29;19927;-54
2022/05/26 00:25:09;;;;;;;;;;;21.40;45.40;;;;;;4944355;28;20030;-54
2022/05/26 00:27:36;;;;;;;;;;;21.40;45.40;;;;;;4912189;28;20444;-55
2022/05/26 00:30:03;;;;;;;;;;;21.40;45.40;;;;;;4929086;29;19937;-56
2022/05/26 00:32:30;;;;;;;;;;;21.40;45.40;;;;;;4926961;28;19993;-55
2022/05/26 00:34:56;;;;;;;;;;;21.40;45.40;;;;;;4940499;29;19927;-56
2022/05/26 00:37:23;;;;;;;;;;;21.40;45.40;;;;;;4933869;29;19927;-57
2022/05/26 00:39:50;;;;;;;;;;;21.40;45.40;;;;;;4949006;28;20295;-57
2022/05/26 00:42:18;;;;;;;;;;;21.40;45.40;;;;;;4948771;28;20019;-57
2022/05/26 00:44:44;;;;;;;;;;;21.40;45.50;;;;;;4932975;28;19934;-50
2022/05/26 00:47:13;;;;;;;;;;;21.40;45.50;;;;;;4933200;28;20013;-53
2022/05/26 00:49:40;;;;;;;;;;;21.40;45.50;;;;;;4948746;28;20006;-54
2022/05/26 00:52:07;;;;;;;;;;;21.40;45.50;;;;;;4932807;28;19927;-54
2022/05/26 00:54:34;;;;;;;;;;;21.40;45.50;;;;;;4949201;28;19984;-53
2022/05/26 00:57:01;;;;;;;;;;;21.40;45.60;;;;;;4934427;29;19938;-52
2022/05/26 00:59:31;;;;;;;;;;;21.40;45.60;;;;;;4952274;28;20349;-53
2022/05/26 01:01:59;;;;;;;;;;;21.40;45.60;;;;;;4940931;28;19989;-57
2022/05/26 01:04:25;;;;;;;;;;;21.40;45.60;;;;;;4944933;28;19931;-54
2022/05/26 01:06:53;;;;;;;;;;;21.40;45.70;;;;;;4932921;28;20016;-58
2022/05/26 01:09:20;;;;;;;;;;;21.40;45.70;;;;;;4948488;28;19927;-54
2022/05/26 01:11:47;;;;;;;;;;;21.40;45.80;;;;;;4941591;28;20323;-55
2022/05/26 01:14:15;;;;;;;;;;;21.40;45.70;;;;;;4935271;28;19995;-57
2022/05/26 01:16:44;;;;;;;;;;;21.40;45.70;;;;;;4937819;29;19927;-55
2022/05/26 01:19:16;;;;;;;;;;;21.30;45.60;;;;;;4948441;28;20034;-55
2022/05/26 01:21:44;;;;;;;;;;;21.30;45.70;;;;;;4958213;28;20372;-54
2022/05/26 01:24:17;;;;;;;;;;;21.30;46.30;;;;;;4934007;29;19926;-53
2022/05/26 01:26:59;;;;;;;;;;;21.30;45.70;;;;;;4922287;28;20395;-54
2022/05/26 01:29:48;;;;;;;;;;;21.30;45.70;;;;;;4933122;29;19966;-50
2022/05/26 01:32:17;;;;;;;;;;;21.30;45.80;;;;;;4914113;28;19946;-55
2022/05/26 01:34:46;;;;;;;;;;;21.30;45.80;;;;;;4921212;29;19973;-53
2022/05/26 01:37:15;;;;;;;;;;;21.30;45.80;;;;;;4932908;28;20584;-55
2022/05/26 01:39:45;;;;;;;;;;;21.30;45.90;;;;;;4920393;28;20335;-54
2022/05/26 01:42:15;;;;;;;;;;;21.30;45.90;;;;;;4932763;28;19927;-55
2022/05/26 01:44:47;;;;;;;;;;;21.30;45.90;;;;;;4948690;28;19927;-57
2022/05/26 01:47:18;;;;;;;;;;;21.30;46.00;;;;;;4918054;29;20437;-58
2022/05/26 01:49:45;;;;;;;;;;;21.30;46.00;;;;;;4932347;29;19935;-58
2022/05/26 01:52:13;;;;;;;;;;;21.30;46.00;;;;;;4932393;29;20030;-56
2022/05/26 01:54:40;;;;;;;;;;;21.30;46.00;;;;;;4933832;29;20154;-54
2022/05/26 01:57:08;;;;;;;;;;;21.30;46.10;;;;;;4932359;28;19927;-54
2022/05/26 01:59:36;;;;;;;;;;;21.30;46.10;;;;;;4933635;29;19966;-55
2022/05/26 02:02:03;;;;;;;;;;;21.30;46.10;;;;;;4933243;29;19973;-57
2022/05/26 02:04:32;;;;;;;;;;;21.30;46.10;;;;;;4942302;28;19954;-53
2022/05/26 02:07:01;;;;;;;;;;;21.30;46.10;;;;;;4931842;29;19927;-53
2022/05/26 02:09:28;;;;;;;;;;;21.30;46.20;;;;;;4946311;28;19931;-54
2022/05/26 02:11:56;;;;;;;;;;;21.30;46.20;;;;;;4934548;29;20017;-56
2022/05/26 02:14:23;;;;;;;;;;;21.30;46.30;;;;;;4923591;28;19977;-51
2022/05/26 02:16:50;;;;;;;;;;;21.30;46.30;;;;;;4929879;29;20014;-56
2022/05/26 02:19:17;;;;;;;;;;;21.30;46.30;;;;;;4943058;28;20276;-55
2022/05/26 02:21:46;;;;;;;;;;;21.30;46.30;;;;;;4922491;28;20025;-56
2022/05/26 02:24:14;;;;;;;;;;;21.30;46.40;;;;;;4928768;28;20030;-55
2022/05/26 02:26:40;;;;;;;;;;;21.30;46.40;;;;;;4931713;29;20360;-52
2022/05/26 02:31:51;;;;;;;;;;;21.30;46.40;;;;;;4931488;28;20276;-54
2022/05/26 02:34:18;;;;;;;;;;;21.30;46.50;;;;;;4924339;28;19966;-55
2022/05/26 02:36:46;;;;;;;;;;;21.30;46.50;;;;;;4930992;28;19927;-56
2022/05/26 02:39:13;;;;;;;;;;;21.30;46.60;;;;;;4923111;28;19962;-56
2022/05/26 02:41:39;;;;;;;;;;;21.30;46.60;;;;;;4931453;29;19966;-53
2022/05/26 02:44:06;;;;;;;;;;;21.30;46.60;;;;;;4934358;28;20319;-53
2022/05/26 02:46:43;;;;;;;;;;;21.30;46.60;;;;;;4943705;28;20407;-54
2022/05/26 02:49:13;;;;;;;;;;;21.30;46.60;;;;;;4928115;28;20388;-57
2022/05/26 02:51:40;;;;;;;;;;;21.30;46.60;;;;;;4939161;28;19927;-52
2022/05/26 02:54:13;;;;;;;;;;;21.30;46.60;;;;;;4918786;29;20457;-54
2022/05/26 02:56:42;;;;;;;;;;;21.30;46.60;;;;;;4939968;28;19977;-55
2022/05/26 02:59:11;;;;;;;;;;;21.30;46.60;;;;;;4913995;28;19933;-54
2022/05/26 03:01:40;;;;;;;;;;;21.30;46.60;;;;;;4913117;28;19959;-56
2022/05/26 03:04:08;;;;;;;;;;;21.30;46.70;;;;;;4925330;28;20326;-56
2022/05/26 03:06:36;;;;;;;;;;;21.30;46.70;;;;;;4932344;29;19927;-52
2022/05/26 03:09:03;;;;;;;;;;;21.30;46.70;;;;;;4941735;28;19973;-54
2022/05/26 03:11:34;;;;;;;;;;;21.30;46.70;;;;;;4931255;29;19927;-56
2022/05/26 03:14:01;;;;;;;;;;;21.30;46.70;;;;;;4932449;28;19965;-55
2022/05/26 03:16:27;;;;;;;;;;;21.30;46.80;;;;;;4938651;28;19992;-57
2022/05/26 03:18:54;;;;;;;;;;;21.30;46.90;;;;;;4941596;28;19981;-57
2022/05/26 03:21:21;;;;;;;;;;;21.30;46.80;;;;;;4930558;29;20021;-55
2022/05/26 03:23:48;;;;;;;;;;;21.30;46.80;;;;;;4928348;29;19927;-53
2022/05/26 03:26:15;;;;;;;;;;;21.30;46.90;;;;;;4946556;28;19969;-56
2022/05/26 03:28:44;;;;;;;;;;;21.30;47.00;;;;;;4935165;29;19930;-53
2022/05/26 03:31:11;;;;;;;;;;;21.30;46.90;;;;;;4948905;28;19931;-52
2022/05/26 03:41:50;;;;;;;;;;;21.30;47.00;;;;;;4938186;28;19927;-52
2022/05/26 03:44:18;;;;;;;;;;;21.30;47.00;;;;;;4931403;29;19927;-56
2022/05/26 03:46:45;;;;;;;;;;;21.20;47.00;;;;;;4917266;29;19954;-55
2022/05/26 03:49:11;;;;;;;;;;;21.30;47.00;;;;;;4925125;28;19934;-52
2022/05/26 03:51:38;;;;;;;;;;;21.30;47.00;;;;;;4945386;28;19973;-52
2022/05/26 03:54:05;;;;;;;;;;;21.30;47.10;;;;;;4940037;28;20303;-55
2022/05/26 03:56:31;;;;;;;;;;;21.30;47.10;;;;;;4927587;28;19927;-53
2022/05/26 03:58:58;;;;;;;;;;;21.30;47.10;;;;;;4939670;29;19931;-54
2022/05/26 04:01:27;;;;;;;;;;;21.20;47.00;;;;;;4930886;29;20022;-54
2022/05/26 04:03:55;;;;;;;;;;;21.30;47.10;;;;;;4924458;28;19965;-55
2022/05/26 04:06:22;;;;;;;;;;;21.20;47.00;;;;;;4925128;28;19934;-56
2022/05/26 04:08:48;;;;;;;;;;;21.20;47.10;;;;;;4947413;28;20364;-53
2022/05/26 04:11:15;;;;;;;;;;;21.20;47.00;;;;;;4934145;28;20021;-56
2022/05/26 04:13:42;;;;;;;;;;;21.20;47.10;;;;;;4934041;29;19926;-53
2022/05/26 04:16:08;;;;;;;;;;;21.20;47.10;;;;;;4941229;28;20025;-51
2022/05/26 04:18:37;;;;;;;;;;;21.20;47.10;;;;;;4934562;28;19931;-53
2022/05/26 04:21:05;;;;;;;;;;;21.20;47.10;;;;;;4934713;28;19930;-52
2022/05/26 04:23:31;;;;;;;;;;;21.20;47.10;;;;;;4935405;29;19931;-53
2022/05/26 04:25:58;;;;;;;;;;;21.20;47.10;;;;;;4942463;28;20283;-56
2022/05/26 04:28:25;;;;;;;;;;;21.20;47.10;;;;;;4951274;28;20338;-53
2022/05/26 04:30:51;;;;;;;;;;;21.20;47.10;;;;;;4934463;29;19989;-55
2022/05/26 04:33:18;;;;;;;;;;;21.20;47.70;;;;;;4934368;29;19950;-57
2022/05/26 04:35:46;;;;;;;;;;;21.20;47.10;;;;;;4950248;28;19992;-56
2022/05/26 04:38:13;;;;;;;;;;;21.20;47.20;;;;;;4930419;28;20141;-56
2022/05/26 04:40:40;;;;;;;;;;;21.20;47.10;;;;;;4934232;28;19934;-55
2022/05/26 04:43:06;;;;;;;;;;;21.20;47.10;;;;;;4935381;28;19927;-55
2022/05/26 04:45:33;;;;;;;;;;;21.20;47.10;;;;;;4927236;28;19938;-56
2022/05/26 04:48:00;;;;;;;;;;;21.20;47.10;;;;;;4933716;28;20483;-54
2022/05/26 04:50:27;;;;;;;;;;;21.20;47.20;;;;;;4935312;29;20018;-57
2022/05/26 04:52:55;;;;;;;;;;;21.20;47.20;;;;;;4949505;28;19935;-56
2022/05/26 04:55:21;;;;;;;;;;;21.20;47.20;;;;;;4948181;28;20013;-51
2022/05/26 04:57:48;;;;;;;;;;;21.20;47.20;;;;;;4934617;29;20439;-54
2022/05/26 05:00:16;;;;;;;;;;;21.20;47.20;;;;;;4931427;28;19931;-54
2022/05/26 05:02:43;;;;;;;;;;;21.20;47.20;;;;;;4938882;28;19933;-55
2022/05/26 05:05:10;;;;;;;;;;;21.20;47.20;;;;;;4923952;28;19935;-52
2022/05/26 05:07:37;;;;;;;;;;;21.20;47.20;;;;;;4944024;28;20647;-55
2022/05/26 05:10:05;;;;;;;;;;;21.20;47.20;;;;;;4934063;28;19930;-54
2022/05/26 05:12:32;;;;;;;;;;;21.20;47.20;;;;;;4933156;28;19934;-54
2022/05/26 05:14:59;;;;;;;;;;;21.20;47.20;;;;;;4941655;28;20362;-56
2022/05/26 05:17:26;;;;;;;;;;;21.20;47.20;;;;;;4920724;29;20030;-56
2022/05/26 05:19:53;;;;;;;;;;;21.20;47.30;;;;;;4945330;28;19927;-56
2022/05/26 05:22:20;;;;;;;;;;;21.20;47.20;;;;;;4941039;28;19931;-55
2022/05/26 05:24:47;;;;;;;;;;;21.20;47.20;;;;;;4943846;28;20021;-55
2022/05/26 05:27:16;;;;;;;;;;;21.20;47.20;;;;;;4932530;28;19927;-56
2022/05/26 05:29:42;;;;;;;;;;;21.20;47.20;;;;;;4939770;28;19927;-53
2022/05/26 05:32:10;;;;;;;;;;;21.20;47.20;;;;;;4932671;29;19934;-54
2022/05/26 05:34:37;;;;;;;;;;;21.20;47.20;;;;;;4933836;29;19934;-54
2022/05/26 05:37:05;;;;;;;;;;;21.20;47.80;;;;;;4934517;28;20398;-54
2022/05/26 05:39:31;;;;;;;;;;;21.20;47.20;;;;;;4931003;28;19934;-53
2022/05/26 05:41:58;;;;;;;;;;;21.20;47.20;;;;;;4955173;28;20457;-52
2022/05/26 05:44:26;;;;;;;;;;;21.20;47.10;;;;;;4933814;28;19931;-56
2022/05/26 05:46:57;;;;;;;;;;;21.20;47.10;;;;;;4930474;28;19985;-56
2022/05/26 05:49:24;;;;;;;;;;;21.20;47.10;;;;;;4947020;28;20346;-56
2022/05/26 05:51:51;;;;;;;;;;;21.20;47.10;;;;;;4932974;28;19927;-54
2022/05/26 05:54:18;;;;;;;;;;;21.20;47.10;;;;;;4933015;28;19962;-52
2022/05/26 05:56:45;;;;;;;;;;;21.20;47.00;;;;;;4933726;28;20034;-53
2022/05/26 05:59:12;;;;;;;;;;;21.20;47.00;;;;;;4933288;28;20005;-54
2022/05/26 06:01:40;;;;;;;;;;;21.20;47.00;;;;;;4951476;28;20049;-52
2022/05/26 06:04:07;;;;;;;;;;;21.20;47.00;;;;;;4948604;28;19935;-56
2022/05/26 06:06:37;;;;;;;;;;;21.10;46.90;;;;;;4934202;28;19981;-55
2022/05/26 06:09:04;;;;;;;;;;;21.10;46.90;;;;;;4941456;28;19973;-55
2022/05/26 06:11:32;;;;;;;;;;;21.10;46.90;;;;;;4933666;29;19993;-51
2022/05/26 06:13:58;;;;;;;;;;;21.10;46.80;;;;;;4932258;28;19927;-51
2022/05/26 06:16:25;;;;;;;;;;;21.10;46.90;;;;;;4947502;28;20554;-56
2022/05/26 06:18:53;;;;;;;;;;;21.10;46.80;;;;;;4932481;29;20017;-56
2022/05/26 06:21:20;;;;;;;;;;;21.10;46.90;;;;;;4924178;28;19927;-53
2022/05/26 06:23:47;;;;;;;;;;;21.10;46.80;;;;;;4932268;29;19930;-53
2022/05/26 06:26:13;;;;;;;;;;;21.10;46.90;;;;;;4930103;28;20030;-55
2022/05/26 06:31:24;;;;;;;;;;;21.10;46.80;;;;;;4926398;29;19927;-50
2022/05/26 06:39:23;;;;;;;;;;;21.10;46.70;;;;;;4926206;28;19931;-55
2022/05/26 06:44:34;;;;;;;;;;;21.10;46.60;;;;;;4944917;28;19981;-55
2022/05/26 06:47:01;;;;;;;;;;;21.10;46.60;;;;;;4931839;28;20327;-55
2022/05/26 06:49:29;;;;;;;;;;;21.10;46.60;;;;;;4961918;28;19930;-56
2022/05/26 06:51:55;;;;;;;;;;;21.10;46.60;;;;;;4936653;28;19938;-55
2022/05/26 06:54:22;;;;;;;;;;;21.10;46.60;;;;;;4940348;28;20061;-57
2022/05/26 06:56:49;;;;;;;;;;;21.10;46.50;;;;;;4926804;28;19926;-54
2022/05/26 06:59:15;;;;;;;;;;;21.10;46.50;;;;;;4930552;29;20296;-56
2022/05/26 07:01:42;;;;;;;;;;;21.10;46.40;;;;;;4929196;28;20025;-49
2022/05/26 07:04:09;;;;;;;;;;;21.10;46.40;;;;;;4957364;28;19931;-53
2022/05/26 07:06:37;;;;;;;;;;;21.10;46.40;;;;;;4933356;28;19935;-54
2022/05/26 07:09:03;;;;;;;;;;;21.10;46.30;;;;;;4930303;28;19996;-53
2022/05/26 07:11:32;;;;;;;;;;;21.10;46.20;;;;;;4947340;29;19927;-57
2022/05/26 07:13:58;;;;;;;;;;;21.10;46.10;;;;;;4930359;28;20295;-55
2022/05/26 07:16:25;;;;;;;;;;;21.00;46.00;;;;;;4942804;28;19940;-52
2022/05/26 07:18:54;;;;;;;;;;;21.10;46.00;;;;;;4945539;28;20023;-52
2022/05/26 07:21:20;;;;;;;;;;;21.10;45.90;;;;;;4947366;28;19927;-55
2022/05/26 07:23:48;;;;;;;;;;;21.10;45.80;;;;;;4955528;28;19934;-51
2022/05/26 07:26:16;;;;;;;;;;;21.10;45.80;;;;;;4945663;28;20232;-50
2022/05/26 07:28:42;;;;;;;;;;;21.10;45.70;;;;;;4930708;29;19961;-55
2022/05/26 07:31:09;;;;;;;;;;;21.10;45.50;;;;;;4922440;28;19961;-56
2022/05/26 07:33:36;;;;;;;;;;;21.10;45.40;;;;;;4928022;28;20026;-54
2022/05/26 07:36:03;;;;;;;;;;;21.00;45.20;;;;;;4940896;28;19927;-56
2022/05/26 07:41:20;;;;;;;;;;;21.00;44.90;;;;;;4957462;28;20036;-55
2022/05/26 07:43:48;;;;;;;;;;;21.00;44.80;;;;;;4923750;28;19934;-56
2022/05/26 07:46:15;;;;;;;;;;;21.00;44.80;;;;;;4934144;28;19949;-55
2022/05/26 07:48:41;;;;;;;;;;;21.00;44.80;;;;;;4949834;28;19935;-56
2022/05/26 07:51:08;;;;;;;;;;;21.00;44.70;;;;;;4931319;29;19934;-52
2022/05/26 07:53:35;;;;;;;;;;;21.00;44.60;;;;;;4943688;28;19934;-53
2022/05/26 07:56:02;;;;;;;;;;;21.00;44.60;;;;;;4946286;28;19927;-53
2022/05/26 07:58:30;;;;;;;;;;;21.00;44.50;;;;;;4931740;29;19926;-53
2022/05/26 08:00:57;;;;;;;;;;;21.00;44.30;;;;;;4946750;28;20268;-55
2022/05/26 08:03:24;;;;;;;;;;;21.00;44.20;;;;;;4938991;28;20373;-53
2022/05/26 08:05:50;;;;;;;;;;;21.00;44.10;;;;;;4935405;28;19958;-53
2022/05/26 08:08:18;;;;;;;;;;;20.90;43.90;;;;;;4931284;28;19927;-54
2022/05/26 08:10:44;;;;;;;;;;;20.90;43.80;;;;;;4921481;28;19927;-52
2022/05/26 08:13:11;;;;;;;;;;;20.90;43.60;;;;;;4929655;28;19934;-58
2022/05/26 08:15:39;;;;;;;;;;;20.90;43.50;;;;;;4927971;28;19945;-53
2022/05/26 08:18:07;;;;;;;;;;;20.90;43.50;;;;;;4930323;28;20438;-54
2022/05/26 08:20:33;;;;;;;;;;;20.90;43.40;;;;;;4943987;28;19927;-50
2022/05/26 08:23:00;;;;;;;;;;;20.90;43.30;;;;;;4939789;28;19958;-54
2022/05/26 08:25:27;;;;;;;;;;;20.90;43.20;;;;;;4934740;28;19984;-53
2022/05/26 08:27:54;;;;;;;;;;;20.90;43.10;;;;;;4923490;28;19930;-53
2022/05/26 08:30:21;;;;;;;;;;;20.90;43.00;;;;;;4932686;28;19927;-52
2022/05/26 08:32:50;;;;;;;;;;;20.90;43.00;;;;;;4934677;28;19930;-51
2022/05/26 08:35:17;;;;;;;;;;;20.90;42.90;;;;;;4944783;28;19962;-51
2022/05/26 08:37:43;;;;;;;;;;;20.90;42.90;;;;;;4952137;28;19933;-54
2022/05/26 08:40:11;;;;;;;;;;;20.90;42.80;;;;;;4935057;28;19981;-54
2022/05/26 08:42:38;;;;;;;;;;;20.90;42.70;;;;;;4947778;28;20385;-55
2022/05/26 08:45:06;;;;;;;;;;;20.90;42.60;;;;;;4931108;28;19935;-55
2022/05/26 08:47:33;;;;;;;;;;;20.90;42.50;;;;;;4938235;28;19931;-54
2022/05/26 08:50:03;;;;;;;;;;;20.90;42.40;;;;;;4926955;29;19945;-55
2022/05/26 08:52:31;;;;;;;;;;;20.90;42.30;;;;;;4935079;28;19977;-53
2022/05/26 08:55:00;;;;;;;;;;;20.90;42.30;;;;;;4944779;28;19927;-53
2022/05/26 08:57:29;;;;;;;;;;;20.90;42.30;;;;;;4939478;28;19961;-56
2022/05/26 08:59:56;;;;;;;;;;;20.90;42.40;;;;;;4941365;28;19941;-54
2022/05/26 09:02:24;;;;;;;;;;;20.90;42.40;;;;;;4945409;28;20015;-56
2022/05/26 09:04:50;;;;;;;;;;;20.90;42.40;;;;;;4925012;28;20332;-56
2022/05/26 09:12:59;;;;;;;;;;;20.90;42.50;;;;;;4928728;28;19976;-56
2022/05/26 09:15:26;;;;;;;;;;;20.90;42.70;;;;;;4951818;28;20380;-54
2022/05/26 09:17:53;;;;;;;;;;;20.90;42.80;;;;;;4946772;28;19950;-54
2022/05/26 09:20:31;;;;;;;;;;;21.00;43.00;;;;;;4942604;28;19945;-53
2022/05/26 09:23:08;;;;;;;;;;;21.00;43.00;;;;;;4946067;28;20029;-56
2022/05/26 09:25:36;;;;;;;;;;;21.00;43.10;;;;;;4967783;28;20008;-56
2022/05/26 09:28:03;;;;;;;;;;;21.00;43.20;;;;;;4965323;28;19927;-55
2022/05/26 09:30:30;;;;;;;;;;;21.10;43.30;;;;;;4934511;28;19935;-50
2022/05/26 09:32:57;;;;;;;;;;;21.10;43.20;;;;;;4930193;28;19935;-54
2022/05/26 09:35:25;;;;;;;;;;;21.10;43.20;;;;;;4930988;28;19942;-51
2022/05/26 09:37:52;;;;;;;;;;;21.10;43.20;;;;;;4947139;28;20074;-50
2022/05/26 09:40:21;;;;;;;;;;;21.10;43.20;;;;;;4943001;28;19974;-55
2022/05/26 09:42:49;;;;;;;;;;;21.10;43.20;;;;;;4941423;28;19970;-58
2022/05/26 09:45:16;;;;;;;;;;;21.10;43.20;;;;;;4945188;28;19966;-57
2022/05/26 09:47:53;;;;;;;;;;;21.10;43.20;;;;;;4929568;28;19933;-57
2022/05/26 09:50:38;;;;;;;;;;;21.10;43.20;;;;;;4930229;28;20502;-58
2022/05/26 09:53:06;;;;;;;;;;;21.10;43.30;;;;;;4937691;28;19930;-59
2022/05/26 09:55:34;;;;;;;;;;;21.10;43.30;;;;;;4947904;28;19927;-56
2022/05/26 09:58:03;;;;;;;;;;;21.20;43.40;;;;;;4932847;28;20483;-58
2022/05/26 10:00:35;;;;;;;;;;;21.20;43.40;;;;;;4929063;29;20299;-59
2022/05/26 10:03:04;;;;;;;;;;;21.20;44.00;;;;;;4932438;28;19980;-55
2022/05/26 10:05:37;;;;;;;;;;;21.20;43.50;;;;;;4930912;29;19927;-58
2022/05/26 10:08:07;;;;;;;;;;;21.20;43.40;;;;;;4930159;28;19941;-57
2022/05/26 10:10:37;;;;;;;;;;;21.20;43.50;;;;;;5011254;28;19985;-55
2022/05/26 10:13:25;;;;;;;;;;;21.20;43.50;;;;;;4945275;28;19923;-55
2022/05/26 10:15:55;;;;;;;;;;;21.20;43.40;;;;;;4946350;28;19934;-54
2022/05/26 10:18:46;;;;;;;;;;;21.20;43.30;;;;;;4930760;28;19969;-54
2022/05/26 10:21:14;;;;;;;;;;;21.20;43.30;;;;;;4943314;28;19933;-55
2022/05/26 10:24:02;;;;;;;;;;;21.20;43.20;;;;;;4940045;28;20292;-54
2022/05/26 10:26:32;;;;;;;;;;;21.20;43.10;;;;;;4934515;28;20021;-56
2022/05/26 10:29:05;;;;;;;;;;;21.20;43.10;;;;;;4953514;28;19958;-58
2022/05/26 10:31:35;;;;;;;;;;;21.20;43.00;;;;;;4924763;28;19934;-58
2022/05/26 10:34:09;;;;;;;;;;;21.20;42.80;;;;;;4958653;28;19977;-58
2022/05/26 10:36:41;;;;;;;;;;;21.20;42.80;;;;;;4925918;29;19934;-60
2022/05/26 10:39:10;;;;;;;;;;;21.20;42.80;;;;;;4950253;28;19927;-58
2022/05/26 10:41:40;;;;;;;;;;;21.20;42.80;;;;;;4928982;28;19997;-57
2022/05/26 10:44:10;;;;;;;;;;;21.20;42.90;;;;;;4939385;28;19977;-59
2022/05/26 10:46:39;;;;;;;;;;;21.20;43.00;;;;;;4941074;28;20040;-55
2022/05/26 10:49:07;;;;;;;;;;;21.20;43.60;;;;;;4936989;28;19943;-57
2022/05/26 10:51:35;;;;;;;;;;;21.20;42.90;;;;;;4925316;28;19999;-56
2022/05/26 10:54:05;;;;;;;;;;;21.20;42.90;;;;;;4940754;28;19931;-55
2022/05/26 10:56:32;;;;;;;;;;;21.20;42.90;;;;;;4922357;28;20030;-57
2022/05/26 10:59:07;;;;;;;;;;;21.30;43.00;;;;;;4935513;28;19933;-54
2022/05/26 11:01:34;;;;;;;;;;;21.20;42.90;;;;;;4937432;28;19938;-56
2022/05/26 11:04:05;;;;;;;;;;;21.30;43.10;;;;;;4943133;28;20392;-56
2022/05/26 11:06:33;;;;;;;;;;;21.30;43.10;;;;;;4944130;28;20026;-58
2022/05/26 11:09:00;;;;;;;;;;;21.30;43.20;;;;;;4930104;28;19927;-56
2022/05/26 11:11:28;;;;;;;;;;;21.30;43.20;;;;;;4922472;28;20459;-55
2022/05/26 11:13:55;;;;;;;;;;;21.30;43.20;;;;;;4930571;28;19927;-57
2022/05/26 11:19:15;;;;;;;;;;;21.30;43.20;;;;;;5009594;28;20069;-58
2022/05/26 11:21:41;;;;;;;;;;;21.30;43.20;;;;;;4941913;29;19980;-57
2022/05/26 11:24:08;;;;;;;;;;;21.30;43.20;;;;;;4929734;28;19927;-60
2022/05/26 11:26:38;;;;;;;;;;;21.30;43.20;;;;;;4930930;29;20033;-53
2022/05/26 11:29:06;;;;;;;;;;;21.30;43.20;;;;;;4945940;28;19949;-57
2022/05/26 11:37:16;;;;;;;;;;;21.40;43.40;;;;;;4929301;29;19938;-57
2022/05/26 11:39:44;;;;;;;;;;;21.40;43.50;;;;;;4924057;28;19934;-57
2022/05/26 11:42:11;;;;;;;;;;;21.40;43.50;;;;;;4931813;29;19933;-55
2022/05/26 11:44:39;;;;;;;;;;;21.40;43.60;;;;;;4929397;28;20405;-57
2022/05/26 11:47:14;;;;;;;;;;;21.40;43.50;;;;;;4937910;28;20364;-54
2022/05/26 11:50:08;;;;;;;;;;;21.40;43.50;;;;;;4928522;28;19981;-58
2022/05/26 11:52:54;;;;;;;;;;;21.40;43.50;;;;;;4950475;28;19929;-59
2022/05/26 11:55:26;;;;;;;;;;;21.40;43.50;;;;;;4943486;28;20359;-54
2022/05/26 11:57:53;;;;;;;;;;;21.50;43.70;;;;;;4919459;29;19928;-57
2022/05/26 12:00:21;;;;;;;;;;;21.50;43.70;;;;;;4949151;28;19977;-54
2022/05/26 12:02:51;;;;;;;;;;;21.50;44.30;;;;;;4946396;28;19970;-56
2022/05/26 12:05:36;;;;;;;;;;;21.50;43.70;;;;;;4926415;28;20072;-56
2022/05/26 12:08:04;;;;;;;;;;;21.50;43.70;;;;;;4946017;28;19927;-58
2022/05/26 12:10:37;;;;;;;;;;;21.50;43.70;;;;;;4939354;28;20344;-58
2022/05/26 12:13:25;;;;;;;;;;;21.50;43.70;;;;;;4925290;29;19941;-57
2022/05/26 12:16:09;;;;;;;;;;;21.50;43.70;;;;;;4925010;29;19935;-57
2022/05/26 12:18:43;;;;;;;;;;;21.50;43.70;;;;;;4928804;28;19958;-57
2022/05/26 12:21:13;;;;;;;;;;;21.50;43.80;;;;;;4945272;28;19926;-58
2022/05/26 12:23:42;;;;;;;;;;;21.50;43.80;;;;;;4928366;28;19927;-58
2022/05/26 12:26:28;;;;;;;;;;;21.50;43.80;;;;;;4930739;28;19927;-57
2022/05/26 12:28:55;;;;;;;;;;;21.50;43.80;;;;;;4945705;28;19938;-54
2022/05/26 12:31:22;;;;;;;;;;;21.50;43.80;;;;;;4929286;28;19941;-56
2022/05/26 12:34:09;;;;;;;;;;;21.50;43.80;;;;;;4933647;29;19981;-59
2022/05/26 12:36:41;;;;;;;;;;;21.50;43.80;;;;;;4928339;29;19926;-58
2022/05/26 12:39:15;;;;;;;;;;;21.50;43.70;;;;;;4948255;28;20017;-57
2022/05/26 12:41:44;;;;;;;;;;;21.50;43.70;;;;;;4940411;28;19941;-56
2022/05/26 12:44:28;;;;;;;;;;;21.50;43.70;;;;;;4947205;28;19934;-54
2022/05/26 12:46:59;;;;;;;;;;;21.50;43.70;;;;;;4932223;28;20327;-56
2022/05/26 12:49:32;;;;;;;;;;;21.50;43.70;;;;;;4948453;28;19927;-56
2022/05/26 12:52:16;;;;;;;;;;;21.50;43.60;;;;;;4932332;28;20026;-56
2022/05/26 12:54:45;;;;;;;;;;;21.50;43.60;;;;;;4948592;28;19931;-58
2022/05/26 12:57:11;;;;;;;;;;;21.50;43.50;;;;;;4922471;28;19926;-55
2022/05/26 12:59:38;;;;;;;;;;;21.50;43.50;;;;;;4933103;29;19931;-56
2022/05/26 13:02:05;;;;;;;;;;;21.50;43.60;;;;;;4934044;29;19969;-56
2022/05/26 13:04:32;;;;;;;;;;;21.50;43.60;;;;;;4947855;28;19926;-57
2022/05/26 13:07:00;;;;;;;;;;;21.50;43.60;;;;;;4932296;29;19935;-55
2022/05/26 13:09:28;;;;;;;;;;;21.50;43.60;;;;;;4932299;28;19977;-56
2022/05/26 13:11:56;;;;;;;;;;;21.50;43.60;;;;;;4942265;28;20022;-56
2022/05/26 13:14:31;;;;;;;;;;;21.50;43.60;;;;;;4938759;28;19997;-57
2022/05/26 13:16:58;;;;;;;;;;;21.50;43.60;;;;;;4932679;28;19927;-56
2022/05/26 13:19:24;;;;;;;;;;;21.50;43.60;;;;;;4945271;29;20028;-55
2022/05/26 13:21:52;;;;;;;;;;;21.50;43.60;;;;;;4923209;28;20315;-57
2022/05/26 13:24:19;;;;;;;;;;;21.50;43.70;;;;;;4930214;29;19927;-57
2022/05/26 13:26:47;;;;;;;;;;;21.50;43.70;;;;;;4931104;28;19931;-53
2022/05/26 13:29:15;;;;;;;;;;;21.50;43.70;;;;;;4948173;28;19935;-56
2022/05/26 13:34:27;;;;;;;;;;;21.50;43.60;;;;;;5015354;28;19984;-54
2022/05/26 13:36:54;;;;;;;;;;;21.50;43.60;;;;;;4919456;28;19989;-57
2022/05/26 13:39:21;;;;;;;;;;;21.50;43.50;;;;;;4928091;28;19970;-59
2022/05/26 13:41:51;;;;;;;;;;;21.50;43.50;;;;;;4931232;29;19954;-55
2022/05/26 13:44:18;;;;;;;;;;;21.50;43.50;;;;;;4922071;28;19962;-52
2022/05/26 13:46:47;;;;;;;;;;;21.50;43.50;;;;;;4940651;28;19984;-58
2022/05/26 13:49:32;;;;;;;;;;;21.50;43.60;;;;;;4950585;28;19988;-56
2022/05/26 13:51:59;;;;;;;;;;;21.50;43.60;;;;;;4944037;28;19927;-55
2022/05/26 13:54:32;;;;;;;;;;;21.50;43.70;;;;;;4942524;28;19933;-54
2022/05/26 13:57:01;;;;;;;;;;;21.50;43.70;;;;;;4937804;28;19981;-55
2022/05/26 13:59:28;;;;;;;;;;;21.60;43.80;;;;;;4934520;28;19931;-52
2022/05/26 14:01:56;;;;;;;;;;;21.60;43.80;;;;;;4931057;28;19927;-55
2022/05/26 14:04:24;;;;;;;;;;;21.60;43.80;;;;;;4934990;28;20000;-58
2022/05/26 14:06:51;;;;;;;;;;;21.60;43.80;;;;;;4941712;28;20295;-56
2022/05/26 14:09:36;;;;;;;;;;;21.60;43.70;;;;;;4925857;28;19927;-57
2022/05/26 14:12:05;;;;;;;;;;;21.50;43.60;;;;;;4949151;28;20303;-58
2022/05/26 14:14:39;;;;;;;;;;;21.60;43.80;;;;;;4968686;28;19938;-59
2022/05/26 14:17:06;;;;;;;;;;;21.50;43.70;;;;;;4944730;28;20287;-52
2022/05/26 14:19:33;;;;;;;;;;;21.60;43.70;;;;;;4927185;28;19938;-55
2022/05/26 14:22:00;;;;;;;;;;;21.50;43.70;;;;;;4943317;28;19942;-54
2022/05/26 14:24:31;;;;;;;;;;;21.60;43.80;;;;;;4932186;28;19938;-57
2022/05/26 14:27:16;;;;;;;;;;;21.50;43.60;;;;;;4928888;28;19937;-55
2022/05/26 14:29:44;;;;;;;;;;;21.50;43.60;;;;;;4930107;29;20580;-55
2022/05/26 14:32:12;;;;;;;;;;;21.50;43.60;;;;;;4930071;28;19949;-58
2022/05/26 14:34:40;;;;;;;;;;;21.50;43.70;;;;;;4924510;28;19946;-55
2022/05/26 14:37:07;;;;;;;;;;;21.50;43.60;;;;;;4926703;28;19931;-57
2022/05/26 14:39:34;;;;;;;;;;;21.50;43.70;;;;;;4944920;29;19974;-51
2022/05/26 14:42:01;;;;;;;;;;;21.50;43.70;;;;;;4942289;28;19988;-57
2022/05/26 14:44:30;;;;;;;;;;;21.50;43.70;;;;;;4940815;28;20248;-55
2022/05/26 14:46:58;;;;;;;;;;;21.50;43.70;;;;;;4948450;28;19933;-53
2022/05/26 14:49:24;;;;;;;;;;;21.50;43.60;;;;;;4934030;28;19941;-55
2022/05/26 14:51:51;;;;;;;;;;;21.50;43.60;;;;;;4926383;28;20346;-57
2022/05/26 14:57:02;;;;;;;;;;;21.50;43.60;;;;;;4921331;28;19935;-55
2022/05/26 14:59:29;;;;;;;;;;;21.40;43.60;;;;;;4941882;28;19931;-55
2022/05/26 15:01:55;;;;;;;;;;;21.40;43.60;;;;;;4922198;29;20435;-56
2022/05/26 15:04:24;;;;;;;;;;;21.50;43.70;;;;;;4952580;28;19927;-55
2022/05/26 15:06:51;;;;;;;;;;;21.40;43.60;;;;;;4942047;28;19927;-53
2022/05/26 15:09:19;;;;;;;;;;;21.40;43.60;;;;;;4923702;28;20337;-55